sensor_id;sensor_type;location;lat;lon;timestamp;temperature;humidity
18690;DHT22;9782;52.930;15.562;2023-07-31T00:02:04;15.40;1.00
18690;DHT22;9782;52.930;15.562;2023-07-31T00:04:31;15.30;29.30
18690;DHT22;9782;52.930;15.562;2023-07-31T00:06:58;15.30;57.50
18690;DHT22;9782;52.930;15.562;2023-07-31T00:09:25;15.30;99.90
18690;DHT22;9782;52.930;15.562;2023-07-31T00:11:52;15.30;99.90
18690;DHT22;9782;52.930;15.562;2023-07-31T00:14:18;15.30;99.90
18690;DHT22;9782;52.930;15.562;2023-07-31T00:16:47;15.20;99.90
18690;DHT22;9782;52.930;15.562;2023-07-31T00:19:14;15.20;99.90
18690;DHT22;9782;52.930;15.562;2023-07-31T00:21:41;15.10;99.90
18690;DHT22;9782;52.930;15.562;2023-07-31T00:24:08;15.10;99.90
18690;DHT22;9782;52.930;15.562;2023-07-31T00:26:35;15.10;1.00
18690;DHT22;9782;52.930;15.562;2023-07-31T00:29:02;15.10;1.00
18690;DHT22;9782;52.930;15.562;2023-07-31T00:31:31;15.00;1.00
18690;DHT22;9782;52.930;15.562;2023-07-31T00:33:59;15.00;1.00
18690;DHT22;9782;52.930;15.562;2023-07-31T00:36:28;15.00;1.00
18690;DHT22;9782;52.930;15.562;2023-07-31T00:38:55;15.00;1.00
18690;DHT22;9782;52.930;15.562;2023-07-31T00:49:10;14.90;95.10
18690;DHT22;9782;52.930;15.562;2023-07-31T00:51:38;14.90;99.90
18690;DHT22;9782;52.930;15.562;2023-07-31T00:54:06;14.90;99.90
18690;DHT22;9782;52.930;15.562;2023-07-31T00:56:36;14.80;99.90
18690;DHT22;9782;52.930;15.562;2023-07-31T00:59:06;14.80;99.90
18690;DHT22;9782;52.930;15.562;2023-07-31T01:01:33;14.80;99.90
18690;DHT22;9782;52.930;15.562;2023-07-31T01:04:00;14.70;99.90
18690;DHT22;9782;52.930;15.562;2023-07-31T01:06:36;14.70;99.90
18690;DHT22;9782;52.930;15.562;2023-07-31T01:09:11;14.70;1.00
18690;DHT22;9782;52.930;15.562;2023-07-31T01:45:20;14.40;1.00
18690;DHT22;9782;52.930;15.562;2023-07-31T01:47:47;14.50;1.00
18690;DHT22;9782;52.930;15.562;2023-07-31T01:50:14;14.50;1.00
18690;DHT22;9782;52.930;15.562;2023-07-31T01:52:41;14.60;1.00
18690;DHT22;9782;52.930;15.562;2023-07-31T01:55:10;14.70;1.00
18690;DHT22;9782;52.930;15.562;2023-07-31T01:57:37;14.80;1.00
18690;DHT22;9782;52.930;15.562;2023-07-31T02:00:07;15.00;99.90
18690;DHT22;9782;52.930;15.562;2023-07-31T02:15:32;15.50;1.00
18690;DHT22;9782;52.930;15.562;2023-07-31T02:17:59;15.50;1.00
18690;DHT22;9782;52.930;15.562;2023-07-31T02:20:26;15.50;1.00
18690;DHT22;9782;52.930;15.562;2023-07-31T02:22:56;15.50;1.00
18690;DHT22;9782;52.930;15.562;2023-07-31T02:25:23;15.50;1.00
18690;DHT22;9782;52.930;15.562;2023-07-31T02:27:52;15.50;1.00
18690;DHT22;9782;52.930;15.562;2023-07-31T02:30:19;15.50;1.00
18690;DHT22;9782;52.930;15.562;2023-07-31T02:32:47;15.40;1.00
18690;DHT22;9782;52.930;15.562;2023-07-31T02:35:14;15.30;1.00
18690;DHT22;9782;52.930;15.562;2023-07-31T02:37:44;15.30;1.00
18690;DHT22;9782;52.930;15.562;2023-07-31T02:40:13;15.20;1.00
18690;DHT22;9782;52.930;15.562;2023-07-31T02:42:40;15.20;1.00
18690;DHT22;9782;52.930;15.562;2023-07-31T02:45:08;15.10;1.00
18690;DHT22;9782;52.930;15.562;2023-07-31T02:47:35;15.10;1.00
18690;DHT22;9782;52.930;15.562;2023-07-31T02:50:04;15.00;1.00
18690;DHT22;9782;52.930;15.562;2023-07-31T02:52:31;15.00;78.30
18690;DHT22;9782;52.930;15.562;2023-07-31T02:54:58;14.90;99.90
18690;DHT22;9782;52.930;15.562;2023-07-31T02:57:25;14.90;99.90
18690;DHT22;9782;52.930;15.562;2023-07-31T02:59:52;14.80;99.90
18690;DHT22;9782;52.930;15.562;2023-07-31T03:02:22;14.80;99.90
18690;DHT22;9782;52.930;15.562;2023-07-31T03:04:49;14.80;99.90
18690;DHT22;9782;52.930;15.562;2023-07-31T03:07:18;14.80;99.90
18690;DHT22;9782;52.930;15.562;2023-07-31T03:09:45;14.90;99.90
18690;DHT22;9782;52.930;15.562;2023-07-31T03:25:59;15.40;1.00
18690;DHT22;9782;52.930;15.562;2023-07-31T03:41:27;15.60;1.00
18690;DHT22;9782;52.930;15.562;2023-07-31T03:43:54;15.70;1.00
18690;DHT22;9782;52.930;15.562;2023-07-31T03:46:21;15.70;1.00
18690;DHT22;9782;52.930;15.562;2023-07-31T03:48:51;15.80;1.00
18690;DHT22;9782;52.930;15.562;2023-07-31T03:51:19;15.80;1.00
18690;DHT22;9782;52.930;15.562;2023-07-31T04:09:19;16.00;99.90
18690;DHT22;9782;52.930;15.562;2023-07-31T04:11:49;16.00;99.90
18690;DHT22;9782;52.930;15.562;2023-07-31T04:14:16;16.10;99.90
18690;DHT22;9782;52.930;15.562;2023-07-31T04:19:18;16.10;99.90
18690;DHT22;9782;52.930;15.562;2023-07-31T04:21:45;16.10;99.90
18690;DHT22;9782;52.930;15.562;2023-07-31T04:24:12;16.20;1.00
18690;DHT22;9782;52.930;15.562;2023-07-31T04:26:42;16.20;1.00
18690;DHT22;9782;52.930;15.562;2023-07-31T04:29:09;16.30;1.00
18690;DHT22;9782;52.930;15.562;2023-07-31T04:31:36;16.30;99.90
18690;DHT22;9782;52.930;15.562;2023-07-31T04:34:03;16.30;99.90
18690;DHT22;9782;52.930;15.562;2023-07-31T04:36:30;16.40;99.90
18690;DHT22;9782;52.930;15.562;2023-07-31T04:38:57;16.50;99.90
18690;DHT22;9782;52.930;15.562;2023-07-31T04:41:24;16.50;99.90
18690;DHT22;9782;52.930;15.562;2023-07-31T04:43:52;16.60;99.90
18690;DHT22;9782;52.930;15.562;2023-07-31T04:46:19;16.70;36.80
18690;DHT22;9782;52.930;15.562;2023-07-31T04:48:46;16.80;1.00
18690;DHT22;9782;52.930;15.562;2023-07-31T04:51:13;16.90;11.90
18690;DHT22;9782;52.930;15.562;2023-07-31T04:53:40;17.00;1.00
18690;DHT22;9782;52.930;15.562;2023-07-31T04:56:07;17.10;1.00
18690;DHT22;9782;52.930;15.562;2023-07-31T04:58:34;17.30;1.00
18690;DHT22;9782;52.930;15.562;2023-07-31T05:01:02;17.40;99.90
18690;DHT22;9782;52.930;15.562;2023-07-31T05:03:29;17.50;99.90
18690;DHT22;9782;52.930;15.562;2023-07-31T05:05:55;17.60;13.60
18690;DHT22;9782;52.930;15.562;2023-07-31T05:08:22;17.60;3.70
18690;DHT22;9782;52.930;15.562;2023-07-31T05:10:52;17.60;1.00
18690;DHT22;9782;52.930;15.562;2023-07-31T05:13:19;17.60;1.00
18690;DHT22;9782;52.930;15.562;2023-07-31T05:15:46;17.60;1.00
18690;DHT22;9782;52.930;15.562;2023-07-31T05:18:16;17.50;1.00
18690;DHT22;9782;52.930;15.562;2023-07-31T05:20:43;17.60;1.00
18690;DHT22;9782;52.930;15.562;2023-07-31T05:23:10;17.50;1.00
18690;DHT22;9782;52.930;15.562;2023-07-31T05:25:38;17.60;1.00
18690;DHT22;9782;52.930;15.562;2023-07-31T05:28:04;17.60;1.00
18690;DHT22;9782;52.930;15.562;2023-07-31T05:30:31;17.70;1.00
18690;DHT22;9782;52.930;15.562;2023-07-31T05:32:58;17.90;1.00
18690;DHT22;9782;52.930;15.562;2023-07-31T05:35:27;18.10;1.00
18690;DHT22;9782;52.930;15.562;2023-07-31T05:37:56;18.10;1.00
18690;DHT22;9782;52.930;15.562;2023-07-31T05:40:26;18.30;1.00
18690;DHT22;9782;52.930;15.562;2023-07-31T05:42:53;18.40;99.90
18690;DHT22;9782;52.930;15.562;2023-07-31T05:45:20;18.60;99.90
18690;DHT22;9782;52.930;15.562;2023-07-31T05:47:50;18.70;1.00
18690;DHT22;9782;52.930;15.562;2023-07-31T05:50:17;18.90;1.00
18690;DHT22;9782;52.930;15.562;2023-07-31T05:52:47;19.00;1.00
18690;DHT22;9782;52.930;15.562;2023-07-31T05:55:14;19.10;1.00
18690;DHT22;9782;52.930;15.562;2023-07-31T05:57:42;19.20;99.90
18690;DHT22;9782;52.930;15.562;2023-07-31T06:00:12;19.30;99.90
18690;DHT22;9782;52.930;15.562;2023-07-31T06:02:39;19.40;69.40
18690;DHT22;9782;52.930;15.562;2023-07-31T06:05:07;19.50;1.00
18690;DHT22;9782;52.930;15.562;2023-07-31T06:07:40;19.50;1.00
18690;DHT22;9782;52.930;15.562;2023-07-31T06:10:09;19.60;1.00
18690;DHT22;9782;52.930;15.562;2023-07-31T06:12:36;19.60;1.00
18690;DHT22;9782;52.930;15.562;2023-07-31T06:15:04;19.60;1.00
18690;DHT22;9782;52.930;15.562;2023-07-31T06:17:31;19.70;1.00
18690;DHT22;9782;52.930;15.562;2023-07-31T06:20:00;19.80;99.90
18690;DHT22;9782;52.930;15.562;2023-07-31T06:22:31;19.90;99.90
18690;DHT22;9782;52.930;15.562;2023-07-31T06:24:58;20.00;99.90
18690;DHT22;9782;52.930;15.562;2023-07-31T06:27:26;20.10;99.90
18690;DHT22;9782;52.930;15.562;2023-07-31T06:29:53;20.20;99.90
18690;DHT22;9782;52.930;15.562;2023-07-31T06:32:21;20.30;99.90
18690;DHT22;9782;52.930;15.562;2023-07-31T06:34:48;20.50;99.90
18690;DHT22;9782;52.930;15.562;2023-07-31T06:37:15;20.60;1.00
18690;DHT22;9782;52.930;15.562;2023-07-31T06:39:42;20.50;1.00
18690;DHT22;9782;52.930;15.562;2023-07-31T06:42:09;20.50;1.00
18690;DHT22;9782;52.930;15.562;2023-07-31T06:44:37;20.60;22.10
18690;DHT22;9782;52.930;15.562;2023-07-31T06:47:07;20.70;99.90
18690;DHT22;9782;52.930;15.562;2023-07-31T06:49:34;20.80;1.00
18690;DHT22;9782;52.930;15.562;2023-07-31T06:52:01;20.80;1.00
18690;DHT22;9782;52.930;15.562;2023-07-31T06:54:29;20.70;1.00
18690;DHT22;9782;52.930;15.562;2023-07-31T06:56:55;20.70;1.00
18690;DHT22;9782;52.930;15.562;2023-07-31T06:59:22;20.70;1.00
18690;DHT22;9782;52.930;15.562;2023-07-31T07:01:50;20.70;48.80
18690;DHT22;9782;52.930;15.562;2023-07-31T07:04:17;20.70;1.00
18690;DHT22;9782;52.930;15.562;2023-07-31T07:06:44;20.60;1.00
18690;DHT22;9782;52.930;15.562;2023-07-31T07:09:11;20.40;95.20
18690;DHT22;9782;52.930;15.562;2023-07-31T07:11:38;20.40;99.90
18690;DHT22;9782;52.930;15.562;2023-07-31T07:14:05;20.30;99.90
18690;DHT22;9782;52.930;15.562;2023-07-31T07:16:31;20.30;99.90
18690;DHT22;9782;52.930;15.562;2023-07-31T07:19:00;20.30;1.00
18690;DHT22;9782;52.930;15.562;2023-07-31T07:21:27;20.30;1.00
18690;DHT22;9782;52.930;15.562;2023-07-31T07:23:54;20.30;1.00
18690;DHT22;9782;52.930;15.562;2023-07-31T07:26:20;20.30;1.00
18690;DHT22;9782;52.930;15.562;2023-07-31T07:28:48;20.20;1.00
18690;DHT22;9782;52.930;15.562;2023-07-31T07:31:14;20.10;1.00
18690;DHT22;9782;52.930;15.562;2023-07-31T07:33:41;20.00;1.00
18690;DHT22;9782;52.930;15.562;2023-07-31T07:36:10;20.00;1.00
18690;DHT22;9782;52.930;15.562;2023-07-31T07:38:38;20.00;76.20
18690;DHT22;9782;52.930;15.562;2023-07-31T07:41:05;20.00;50.60
18690;DHT22;9782;52.930;15.562;2023-07-31T07:43:31;20.00;1.10
18690;DHT22;9782;52.930;15.562;2023-07-31T07:45:58;19.90;99.90
18690;DHT22;9782;52.930;15.562;2023-07-31T07:48:25;19.90;99.90
18690;DHT22;9782;52.930;15.562;2023-07-31T07:50:52;19.90;99.90
18690;DHT22;9782;52.930;15.562;2023-07-31T07:53:20;20.00;99.90
18690;DHT22;9782;52.930;15.562;2023-07-31T07:55:47;20.10;99.90
18690;DHT22;9782;52.930;15.562;2023-07-31T07:58:14;20.20;99.90
18690;DHT22;9782;52.930;15.562;2023-07-31T08:00:41;20.50;99.90
18690;DHT22;9782;52.930;15.562;2023-07-31T08:03:08;20.80;1.00
18690;DHT22;9782;52.930;15.562;2023-07-31T08:05:35;21.20;1.00
18690;DHT22;9782;52.930;15.562;2023-07-31T08:08:02;21.50;99.90
18690;DHT22;9782;52.930;15.562;2023-07-31T08:10:30;21.80;96.10
18690;DHT22;9782;52.930;15.562;2023-07-31T08:12:57;22.00;1.00
18690;DHT22;9782;52.930;15.562;2023-07-31T08:15:24;22.00;1.00
18690;DHT22;9782;52.930;15.562;2023-07-31T08:17:51;22.00;1.00
18690;DHT22;9782;52.930;15.562;2023-07-31T08:20:18;22.10;99.90
18690;DHT22;9782;52.930;15.562;2023-07-31T08:22:45;22.30;1.00
18690;DHT22;9782;52.930;15.562;2023-07-31T08:25:11;22.60;99.90
18690;DHT22;9782;52.930;15.562;2023-07-31T08:27:43;22.60;1.00
18690;DHT22;9782;52.930;15.562;2023-07-31T08:30:11;22.40;10.50
18690;DHT22;9782;52.930;15.562;2023-07-31T08:32:37;22.30;3.80
18690;DHT22;9782;52.930;15.562;2023-07-31T08:35:05;22.10;99.90
18690;DHT22;9782;52.930;15.562;2023-07-31T08:37:32;22.10;99.90
18690;DHT22;9782;52.930;15.562;2023-07-31T08:39:59;22.30;99.90
18690;DHT22;9782;52.930;15.562;2023-07-31T08:42:26;22.50;95.10
18690;DHT22;9782;52.930;15.562;2023-07-31T08:44:55;22.60;1.00
18690;DHT22;9782;52.930;15.562;2023-07-31T08:47:23;22.60;1.00
18690;DHT22;9782;52.930;15.562;2023-07-31T08:49:51;22.60;1.00
18690;DHT22;9782;52.930;15.562;2023-07-31T08:52:19;22.50;1.00
18690;DHT22;9782;52.930;15.562;2023-07-31T08:54:46;22.60;1.00
18690;DHT22;9782;52.930;15.562;2023-07-31T08:57:14;22.70;1.00
18690;DHT22;9782;52.930;15.562;2023-07-31T08:59:42;22.80;1.00
18690;DHT22;9782;52.930;15.562;2023-07-31T09:02:12;22.90;1.00
18690;DHT22;9782;52.930;15.562;2023-07-31T09:04:40;22.80;1.00
18690;DHT22;9782;52.930;15.562;2023-07-31T09:07:07;22.60;1.00
18690;DHT22;9782;52.930;15.562;2023-07-31T09:09:35;22.20;1.00
18690;DHT22;9782;52.930;15.562;2023-07-31T09:12:03;22.00;1.00
18690;DHT22;9782;52.930;15.562;2023-07-31T09:14:30;22.00;1.00
18690;DHT22;9782;52.930;15.562;2023-07-31T09:16:58;22.00;1.00
18690;DHT22;9782;52.930;15.562;2023-07-31T09:19:28;22.10;1.00
18690;DHT22;9782;52.930;15.562;2023-07-31T09:21:55;22.20;1.00
18690;DHT22;9782;52.930;15.562;2023-07-31T09:24:26;22.30;1.00
18690;DHT22;9782;52.930;15.562;2023-07-31T09:26:54;22.20;1.00
18690;DHT22;9782;52.930;15.562;2023-07-31T09:29:22;22.10;1.00
18690;DHT22;9782;52.930;15.562;2023-07-31T09:31:50;22.20;1.00
18690;DHT22;9782;52.930;15.562;2023-07-31T09:34:17;22.30;1.00
18690;DHT22;9782;52.930;15.562;2023-07-31T09:36:46;22.20;1.00
18690;DHT22;9782;52.930;15.562;2023-07-31T09:39:15;22.10;1.00
18690;DHT22;9782;52.930;15.562;2023-07-31T09:41:43;22.00;1.00
18690;DHT22;9782;52.930;15.562;2023-07-31T09:44:10;21.90;99.90
18690;DHT22;9782;52.930;15.562;2023-07-31T09:46:38;21.90;99.90
18690;DHT22;9782;52.930;15.562;2023-07-31T09:49:06;21.80;34.80
18690;DHT22;9782;52.930;15.562;2023-07-31T09:51:34;21.60;17.40
18690;DHT22;9782;52.930;15.562;2023-07-31T09:54:09;21.40;99.90
18690;DHT22;9782;52.930;15.562;2023-07-31T09:56:39;21.20;99.90
18690;DHT22;9782;52.930;15.562;2023-07-31T09:59:08;21.30;1.00
18690;DHT22;9782;52.930;15.562;2023-07-31T10:01:37;21.60;1.00
18690;DHT22;9782;52.930;15.562;2023-07-31T10:04:05;22.00;99.90
18690;DHT22;9782;52.930;15.562;2023-07-31T10:06:34;22.40;57.00
18690;DHT22;9782;52.930;15.562;2023-07-31T10:09:02;22.70;1.00
18690;DHT22;9782;52.930;15.562;2023-07-31T10:11:35;23.00;1.00
18690;DHT22;9782;52.930;15.562;2023-07-31T10:14:02;23.00;1.00
18690;DHT22;9782;52.930;15.562;2023-07-31T10:16:30;23.00;1.00
18690;DHT22;9782;52.930;15.562;2023-07-31T10:18:58;23.00;99.90
18690;DHT22;9782;52.930;15.562;2023-07-31T10:21:25;22.80;1.00
18690;DHT22;9782;52.930;15.562;2023-07-31T10:23:54;22.80;1.00
18690;DHT22;9782;52.930;15.562;2023-07-31T10:26:22;22.80;99.90
18690;DHT22;9782;52.930;15.562;2023-07-31T10:28:52;22.80;99.90
18690;DHT22;9782;52.930;15.562;2023-07-31T10:31:21;22.70;99.90
18690;DHT22;9782;52.930;15.562;2023-07-31T10:33:48;22.50;99.90
18690;DHT22;9782;52.930;15.562;2023-07-31T10:36:17;22.30;99.90
18690;DHT22;9782;52.930;15.562;2023-07-31T10:38:45;22.20;1.00
18690;DHT22;9782;52.930;15.562;2023-07-31T10:41:12;22.30;1.00
18690;DHT22;9782;52.930;15.562;2023-07-31T10:43:39;22.30;1.00
18690;DHT22;9782;52.930;15.562;2023-07-31T10:46:08;22.30;1.00
18690;DHT22;9782;52.930;15.562;2023-07-31T10:48:35;22.20;1.00
18690;DHT22;9782;52.930;15.562;2023-07-31T10:51:07;22.20;99.90
18690;DHT22;9782;52.930;15.562;2023-07-31T10:53:35;22.10;1.00
18690;DHT22;9782;52.930;15.562;2023-07-31T10:56:03;22.20;1.00
18690;DHT22;9782;52.930;15.562;2023-07-31T10:58:31;22.30;1.00
18690;DHT22;9782;52.930;15.562;2023-07-31T11:01:00;22.50;1.00
18690;DHT22;9782;52.930;15.562;2023-07-31T11:03:41;22.80;1.00
18690;DHT22;9782;52.930;15.562;2023-07-31T11:06:08;23.00;99.90
18690;DHT22;9782;52.930;15.562;2023-07-31T11:08:41;23.10;99.90
18690;DHT22;9782;52.930;15.562;2023-07-31T11:11:10;23.20;99.90
18690;DHT22;9782;52.930;15.562;2023-07-31T11:13:42;23.20;99.90
18690;DHT22;9782;52.930;15.562;2023-07-31T11:16:10;23.00;99.90
18690;DHT22;9782;52.930;15.562;2023-07-31T11:18:40;22.80;99.90
18690;DHT22;9782;52.930;15.562;2023-07-31T11:21:07;22.70;99.90
18690;DHT22;9782;52.930;15.562;2023-07-31T11:23:37;22.80;99.90
18690;DHT22;9782;52.930;15.562;2023-07-31T11:26:05;23.10;99.90
18690;DHT22;9782;52.930;15.562;2023-07-31T11:28:32;23.50;99.90
18690;DHT22;9782;52.930;15.562;2023-07-31T11:31:00;23.50;1.00
18690;DHT22;9782;52.930;15.562;2023-07-31T11:33:27;23.20;1.00
18690;DHT22;9782;52.930;15.562;2023-07-31T11:35:56;23.10;58.40
18690;DHT22;9782;52.930;15.562;2023-07-31T11:38:24;23.10;99.90
18690;DHT22;9782;52.930;15.562;2023-07-31T11:40:52;23.40;99.90
18690;DHT22;9782;52.930;15.562;2023-07-31T11:43:19;23.90;99.90
18690;DHT22;9782;52.930;15.562;2023-07-31T11:45:47;24.60;4.50
18690;DHT22;9782;52.930;15.562;2023-07-31T11:48:22;25.00;1.00
18690;DHT22;9782;52.930;15.562;2023-07-31T11:50:50;25.20;1.00
18690;DHT22;9782;52.930;15.562;2023-07-31T11:53:21;25.20;1.00
18690;DHT22;9782;52.930;15.562;2023-07-31T11:55:49;25.00;1.00
18690;DHT22;9782;52.930;15.562;2023-07-31T11:58:17;24.80;1.00
18690;DHT22;9782;52.930;15.562;2023-07-31T12:00:44;24.40;1.00
18690;DHT22;9782;52.930;15.562;2023-07-31T12:03:12;24.10;1.00
18690;DHT22;9782;52.930;15.562;2023-07-31T12:05:39;23.80;1.00
18690;DHT22;9782;52.930;15.562;2023-07-31T12:08:09;23.50;1.00
18690;DHT22;9782;52.930;15.562;2023-07-31T12:10:39;23.40;1.00
18690;DHT22;9782;52.930;15.562;2023-07-31T12:13:08;23.20;1.00
18690;DHT22;9782;52.930;15.562;2023-07-31T12:15:40;23.40;1.00
18690;DHT22;9782;52.930;15.562;2023-07-31T12:18:09;23.60;1.00
18690;DHT22;9782;52.930;15.562;2023-07-31T12:20:44;24.00;1.00
18690;DHT22;9782;52.930;15.562;2023-07-31T12:23:14;24.50;1.00
18690;DHT22;9782;52.930;15.562;2023-07-31T12:25:43;24.70;1.00
18690;DHT22;9782;52.930;15.562;2023-07-31T12:28:10;24.70;1.00
18690;DHT22;9782;52.930;15.562;2023-07-31T12:30:39;24.70;1.00
18690;DHT22;9782;52.930;15.562;2023-07-31T12:33:07;24.70;1.00
18690;DHT22;9782;52.930;15.562;2023-07-31T12:35:41;24.60;1.00
18690;DHT22;9782;52.930;15.562;2023-07-31T12:38:08;24.10;1.00
18690;DHT22;9782;52.930;15.562;2023-07-31T12:40:37;23.80;1.00
18690;DHT22;9782;52.930;15.562;2023-07-31T12:43:05;23.40;1.00
18690;DHT22;9782;52.930;15.562;2023-07-31T12:45:32;23.30;99.90
18690;DHT22;9782;52.930;15.562;2023-07-31T12:48:00;23.70;1.00
18690;DHT22;9782;52.930;15.562;2023-07-31T12:50:27;24.20;1.00
18690;DHT22;9782;52.930;15.562;2023-07-31T12:52:54;24.30;1.00
18690;DHT22;9782;52.930;15.562;2023-07-31T12:55:21;24.20;99.90
18690;DHT22;9782;52.930;15.562;2023-07-31T12:57:49;24.00;99.90
18690;DHT22;9782;52.930;15.562;2023-07-31T13:00:17;23.80;1.00
18690;DHT22;9782;52.930;15.562;2023-07-31T13:02:44;23.60;1.00
18690;DHT22;9782;52.930;15.562;2023-07-31T13:05:11;23.50;99.90
18690;DHT22;9782;52.930;15.562;2023-07-31T13:07:39;23.30;1.00
18690;DHT22;9782;52.930;15.562;2023-07-31T13:10:07;23.50;1.00
18690;DHT22;9782;52.930;15.562;2023-07-31T13:12:34;23.80;1.00
18690;DHT22;9782;52.930;15.562;2023-07-31T13:15:01;24.10;1.00
18690;DHT22;9782;52.930;15.562;2023-07-31T13:17:29;24.40;99.90
18690;DHT22;9782;52.930;15.562;2023-07-31T13:19:56;24.20;99.90
18690;DHT22;9782;52.930;15.562;2023-07-31T13:22:23;23.80;99.90
18690;DHT22;9782;52.930;15.562;2023-07-31T13:24:50;23.40;99.90
18690;DHT22;9782;52.930;15.562;2023-07-31T13:27:17;23.10;1.00
18690;DHT22;9782;52.930;15.562;2023-07-31T13:29:46;23.30;1.00
18690;DHT22;9782;52.930;15.562;2023-07-31T13:32:13;23.80;1.00
18690;DHT22;9782;52.930;15.562;2023-07-31T13:34:41;24.10;99.90
18690;DHT22;9782;52.930;15.562;2023-07-31T13:37:08;24.40;99.90
18690;DHT22;9782;52.930;15.562;2023-07-31T13:39:34;24.60;99.90
18690;DHT22;9782;52.930;15.562;2023-07-31T13:42:02;24.80;99.90
18690;DHT22;9782;52.930;15.562;2023-07-31T13:44:32;24.90;99.90
18690;DHT22;9782;52.930;15.562;2023-07-31T13:46:59;25.00;18.00
18690;DHT22;9782;52.930;15.562;2023-07-31T13:49:26;25.10;37.00
18690;DHT22;9782;52.930;15.562;2023-07-31T13:51:54;25.20;11.20
18690;DHT22;9782;52.930;15.562;2023-07-31T13:54:22;25.40;1.00
18690;DHT22;9782;52.930;15.562;2023-07-31T13:56:49;25.40;1.00
18690;DHT22;9782;52.930;15.562;2023-07-31T13:59:16;25.20;1.00
18690;DHT22;9782;52.930;15.562;2023-07-31T14:01:44;25.20;1.00
18690;DHT22;9782;52.930;15.562;2023-07-31T14:04:11;25.00;1.00
18690;DHT22;9782;52.930;15.562;2023-07-31T14:06:38;24.90;1.00
18690;DHT22;9782;52.930;15.562;2023-07-31T14:09:06;24.90;1.00
18690;DHT22;9782;52.930;15.562;2023-07-31T14:11:33;25.00;1.00
18690;DHT22;9782;52.930;15.562;2023-07-31T14:14:00;25.00;1.00
18690;DHT22;9782;52.930;15.562;2023-07-31T14:16:28;24.80;1.00
18690;DHT22;9782;52.930;15.562;2023-07-31T14:18:55;24.40;1.00
18690;DHT22;9782;52.930;15.562;2023-07-31T14:21:24;24.10;1.00
18690;DHT22;9782;52.930;15.562;2023-07-31T14:23:51;23.80;1.00
18690;DHT22;9782;52.930;15.562;2023-07-31T14:26:19;23.70;1.00
18690;DHT22;9782;52.930;15.562;2023-07-31T14:28:46;23.80;1.00
18690;DHT22;9782;52.930;15.562;2023-07-31T14:31:13;24.10;1.00
18690;DHT22;9782;52.930;15.562;2023-07-31T14:33:40;24.40;1.00
18690;DHT22;9782;52.930;15.562;2023-07-31T14:36:07;24.60;1.00
18690;DHT22;9782;52.930;15.562;2023-07-31T14:38:33;24.60;1.00
18690;DHT22;9782;52.930;15.562;2023-07-31T14:41:00;24.60;1.00
18690;DHT22;9782;52.930;15.562;2023-07-31T14:43:28;24.80;1.00
18690;DHT22;9782;52.930;15.562;2023-07-31T14:45:55;25.00;1.00
18690;DHT22;9782;52.930;15.562;2023-07-31T14:48:24;25.10;1.00
18690;DHT22;9782;52.930;15.562;2023-07-31T14:50:51;25.00;1.00
18690;DHT22;9782;52.930;15.562;2023-07-31T14:53:18;24.80;1.00
18690;DHT22;9782;52.930;15.562;2023-07-31T14:55:45;24.60;1.00
18690;DHT22;9782;52.930;15.562;2023-07-31T14:58:12;24.30;1.00
18690;DHT22;9782;52.930;15.562;2023-07-31T15:00:41;24.10;1.00
18690;DHT22;9782;52.930;15.562;2023-07-31T15:03:08;23.80;1.00
18690;DHT22;9782;52.930;15.562;2023-07-31T15:05:35;23.50;1.00
18690;DHT22;9782;52.930;15.562;2023-07-31T15:08:02;23.30;1.00
18690;DHT22;9782;52.930;15.562;2023-07-31T15:10:28;23.30;62.00
18690;DHT22;9782;52.930;15.562;2023-07-31T15:12:55;23.30;99.90
18690;DHT22;9782;52.930;15.562;2023-07-31T15:15:22;23.40;99.90
18690;DHT22;9782;52.930;15.562;2023-07-31T15:17:50;23.60;99.90
18690;DHT22;9782;52.930;15.562;2023-07-31T15:20:17;23.90;99.90
18690;DHT22;9782;52.930;15.562;2023-07-31T15:22:44;24.00;34.60
18690;DHT22;9782;52.930;15.562;2023-07-31T15:25:11;24.10;39.00
18690;DHT22;9782;52.930;15.562;2023-07-31T15:27:38;24.20;26.20
18690;DHT22;9782;52.930;15.562;2023-07-31T15:30:06;24.40;1.00
18690;DHT22;9782;52.930;15.562;2023-07-31T15:32:33;24.70;1.00
18690;DHT22;9782;52.930;15.562;2023-07-31T15:35:01;24.90;1.00
18690;DHT22;9782;52.930;15.562;2023-07-31T15:37:28;25.00;1.00
18690;DHT22;9782;52.930;15.562;2023-07-31T15:39:55;24.90;1.00
18690;DHT22;9782;52.930;15.562;2023-07-31T15:42:21;24.80;1.00
18690;DHT22;9782;52.930;15.562;2023-07-31T15:44:48;24.80;1.00
18690;DHT22;9782;52.930;15.562;2023-07-31T15:47:15;24.70;1.00
18690;DHT22;9782;52.930;15.562;2023-07-31T15:49:42;24.80;1.00
18690;DHT22;9782;52.930;15.562;2023-07-31T15:52:10;24.80;1.00
18690;DHT22;9782;52.930;15.562;2023-07-31T15:54:37;24.70;1.00
18690;DHT22;9782;52.930;15.562;2023-07-31T15:57:04;24.70;1.00
18690;DHT22;9782;52.930;15.562;2023-07-31T15:59:31;24.70;1.00
18690;DHT22;9782;52.930;15.562;2023-07-31T16:01:58;24.60;1.00
18690;DHT22;9782;52.930;15.562;2023-07-31T16:04:25;24.40;1.00
18690;DHT22;9782;52.930;15.562;2023-07-31T16:06:51;24.10;1.00
18690;DHT22;9782;52.930;15.562;2023-07-31T16:09:20;24.00;1.00
18690;DHT22;9782;52.930;15.562;2023-07-31T16:11:47;23.90;1.00
18690;DHT22;9782;52.930;15.562;2023-07-31T16:14:14;23.90;1.00
18690;DHT22;9782;52.930;15.562;2023-07-31T16:16:41;24.00;1.00
18690;DHT22;9782;52.930;15.562;2023-07-31T16:19:08;24.00;1.00
18690;DHT22;9782;52.930;15.562;2023-07-31T16:21:35;24.00;1.00
18690;DHT22;9782;52.930;15.562;2023-07-31T16:24:02;23.90;1.00
18690;DHT22;9782;52.930;15.562;2023-07-31T16:26:31;23.80;1.00
18690;DHT22;9782;52.930;15.562;2023-07-31T16:28:58;23.80;1.00
18690;DHT22;9782;52.930;15.562;2023-07-31T16:31:25;23.80;1.00
18690;DHT22;9782;52.930;15.562;2023-07-31T16:33:52;23.80;1.00
18690;DHT22;9782;52.930;15.562;2023-07-31T16:36:19;23.80;1.00
18690;DHT22;9782;52.930;15.562;2023-07-31T16:38:47;23.90;1.00
18690;DHT22;9782;52.930;15.562;2023-07-31T16:41:14;23.80;1.00
18690;DHT22;9782;52.930;15.562;2023-07-31T16:43:42;23.80;1.00
18690;DHT22;9782;52.930;15.562;2023-07-31T16:46:12;23.70;1.00
18690;DHT22;9782;52.930;15.562;2023-07-31T16:48:42;23.50;1.00
18690;DHT22;9782;52.930;15.562;2023-07-31T16:51:09;23.40;1.00
18690;DHT22;9782;52.930;15.562;2023-07-31T16:53:39;23.40;1.00
18690;DHT22;9782;52.930;15.562;2023-07-31T16:56:06;23.20;1.00
18690;DHT22;9782;52.930;15.562;2023-07-31T16:58:33;23.20;1.00
18690;DHT22;9782;52.930;15.562;2023-07-31T17:01:02;23.20;1.00
18690;DHT22;9782;52.930;15.562;2023-07-31T17:03:29;23.20;1.00
18690;DHT22;9782;52.930;15.562;2023-07-31T17:05:56;23.10;1.00
18690;DHT22;9782;52.930;15.562;2023-07-31T17:08:23;23.00;1.00
18690;DHT22;9782;52.930;15.562;2023-07-31T17:10:50;22.90;1.00
18690;DHT22;9782;52.930;15.562;2023-07-31T17:13:17;22.70;1.00
18690;DHT22;9782;52.930;15.562;2023-07-31T17:15:44;22.60;1.00
18690;DHT22;9782;52.930;15.562;2023-07-31T17:18:12;22.50;1.00
18690;DHT22;9782;52.930;15.562;2023-07-31T17:20:43;22.40;1.00
18690;DHT22;9782;52.930;15.562;2023-07-31T17:23:10;22.30;14.10